Time;durP1;ratioP1;P1;durP2;ratioP2;P2;SDS_P1;SDS_P2;PMS_P1;PMS_P2;Temp;Humidity;BMP_temperature;BMP_pressure;BME280_temperature;BME280_humidity;BME280_pressure;Samples;Min_cycle;Max_cycle;Signal;HPM_P1;HPM_P2
2024/01/18 00:02:26;;;;;;;32.05;30.05;;;;;;;-0.98;100.00;100467.66;5072094;28;20498;-57
2024/01/18 00:04:53;;;;;;;29.13;27.10;;;;;;;-1.08;100.00;100471.25;5068195;28;20044;-56
2024/01/18 00:07:22;;;;;;;37.92;35.22;;;;;;;-1.07;100.00;100467.66;5068619;28;20044;-56
2024/01/18 00:09:49;;;;;;;39.15;36.05;;;;;;;-0.97;100.00;100469.31;5072590;28;20512;-57
2024/01/18 00:12:15;;;;;;;33.72;31.60;;;;;;;-0.98;100.00;100472.88;5065956;28;20052;-56
2024/01/18 00:14:42;;;;;;;33.85;31.38;;;;;;;-1.17;100.00;100465.88;5056370;28;20053;-57
2024/01/18 00:17:09;;;;;;;36.10;33.47;;;;;;;-0.96;100.00;100465.75;5065804;28;20055;-57
2024/01/18 00:19:36;;;;;;;37.35;33.97;;;;;;;-1.22;100.00;100467.25;5063733;28;20052;-57
2024/01/18 00:22:03;;;;;;;36.85;34.50;;;;;;;-1.08;100.00;100464.25;5063612;28;20063;-56
2024/01/18 00:24:31;;;;;;;33.28;31.17;;;;;;;-1.00;100.00;100460.94;5069340;28;20066;-57
2024/01/18 00:26:58;;;;;;;36.67;33.45;;;;;;;-0.96;100.00;100454.50;5060156;28;20573;-56
2024/01/18 00:29:25;;;;;;;36.15;33.47;;;;;;;-1.06;100.00;100454.50;5060768;28;20052;-57
2024/01/18 00:31:52;;;;;;;34.78;32.78;;;;;;;-0.92;100.00;100442.81;5065551;28;20439;-57
2024/01/18 00:34:18;;;;;;;42.33;39.20;;;;;;;-0.98;100.00;100443.38;5069932;28;20139;-56
2024/01/18 00:36:46;;;;;;;42.33;39.22;;;;;;;-1.18;100.00;100445.16;5057251;28;20436;-57
2024/01/18 00:39:16;;;;;;;44.95;41.13;;;;;;;-0.93;100.00;100449.84;5058796;28;20129;-57
2024/01/18 00:41:44;;;;;;;43.20;40.50;;;;;;;-0.79;100.00;100445.16;5078049;28;20434;-57
2024/01/18 00:44:11;;;;;;;44.17;41.22;;;;;;;-0.76;100.00;100432.63;5061111;28;20059;-57
2024/01/18 00:46:38;;;;;;;40.38;37.72;;;;;;;-0.94;100.00;100432.56;5071015;28;20055;-57
2024/01/18 00:49:05;;;;;;;41.88;39.33;;;;;;;-0.66;100.00;100430.03;5064423;28;20589;-57
2024/01/18 00:51:32;;;;;;;39.30;36.60;;;;;;;-0.73;100.00;100436.75;5062937;28;20052;-57
2024/01/18 00:53:59;;;;;;;38.00;35.45;;;;;;;-0.57;100.00;100436.22;5069094;28;20049;-57
2024/01/18 00:56:26;;;;;;;36.60;34.10;;;;;;;-0.50;100.00;100439.88;5057193;28;20045;-58
2024/01/18 00:58:54;;;;;;;42.42;39.17;;;;;;;-0.37;100.00;100434.34;5069819;28;20072;-57
2024/01/18 01:01:21;;;;;;;45.20;41.53;;;;;;;-0.40;100.00;100427.63;5065329;28;20044;-57
2024/01/18 01:03:48;;;;;;;34.13;32.03;;;;;;;-0.45;100.00;100429.88;5068219;28;20522;-57
2024/01/18 01:06:15;;;;;;;35.95;33.22;;;;;;;-0.31;100.00;100421.56;5065138;28;20057;-57
2024/01/18 01:08:41;;;;;;;36.50;34.20;;;;;;;-0.47;100.00;100416.94;5064505;28;20065;-57
2024/01/18 01:11:09;;;;;;;35.10;32.97;;;;;;;-0.42;100.00;100403.47;5067611;28;20048;-57
2024/01/18 01:13:36;;;;;;;33.15;30.85;;;;;;;-0.47;100.00;100400.47;5071788;28;20150;-58
2024/01/18 01:16:05;;;;;;;35.65;33.35;;;;;;;-0.61;100.00;100406.94;5063753;28;20500;-57
2024/01/18 01:18:32;;;;;;;34.42;32.22;;;;;;;-0.88;100.00;100412.06;5068768;28;20051;-56
2024/01/18 01:20:58;;;;;;;38.13;35.53;;;;;;;-0.97;100.00;100422.41;5069860;28;20640;-56
2024/01/18 01:23:25;;;;;;;35.78;33.38;;;;;;;-0.69;100.00;100419.88;5061527;28;20040;-57
2024/01/18 01:25:52;;;;;;;36.67;34.17;;;;;;;-0.43;100.00;100406.22;5065006;28;20052;-57
2024/01/18 01:28:19;;;;;;;32.92;30.63;;;;;;;-0.37;100.00;100403.84;5072265;28;20048;-56
2024/01/18 01:30:46;;;;;;;32.30;29.88;;;;;;;-0.22;100.00;100401.59;5064987;28;20036;-56
2024/01/18 01:33:14;;;;;;;36.95;34.45;;;;;;;-0.13;100.00;100399.94;5064595;28;20051;-57
2024/01/18 01:35:41;;;;;;;38.35;35.55;;;;;;;-0.11;100.00;100405.84;5063067;28;20056;-56
2024/01/18 01:38:11;;;;;;;32.92;30.73;;;;;;;-0.19;100.00;100409.16;5065216;28;20052;-57
2024/01/18 01:40:38;;;;;;;32.88;30.67;;;;;;;-0.16;100.00;100410.66;5071800;28;20431;-58
2024/01/18 01:43:05;;;;;;;37.22;34.55;;;;;;;-0.11;100.00;100416.28;5068873;28;20048;-57
2024/01/18 01:45:32;;;;;;;38.78;35.80;;;;;;;-0.09;100.00;100414.31;5064685;28;20439;-58
2024/01/18 01:47:59;;;;;;;36.60;34.00;;;;;;;-0.10;100.00;100412.69;5059267;28;20057;-58
2024/01/18 01:50:28;;;;;;;31.48;29.48;;;;;;;-0.04;100.00;100402.50;5068632;28;20396;-57
2024/01/18 01:52:56;;;;;;;31.02;29.20;;;;;;;-0.10;100.00;100408.28;5066295;28;20048;-57
2024/01/18 01:55:23;;;;;;;30.45;28.45;;;;;;;-0.13;100.00;100410.38;5065046;28;20483;-58
2024/01/18 01:57:50;;;;;;;30.00;28.10;;;;;;;-0.09;100.00;100409.97;5059593;28;20419;-57
2024/01/18 02:00:17;;;;;;;33.15;31.05;;;;;;;-0.05;100.00;100406.06;5069260;28;20063;-56
2024/01/18 02:02:45;;;;;;;33.20;31.05;;;;;;;-0.10;100.00;100403.06;5061920;28;20128;-56
2024/01/18 02:05:13;;;;;;;30.15;28.05;;;;;;;-0.28;100.00;100402.19;5065882;28;20056;-57
2024/01/18 02:07:42;;;;;;;34.03;31.42;;;;;;;0.01;100.00;100396.03;5070553;28;20052;-57
2024/01/18 02:10:10;;;;;;;35.60;33.10;;;;;;;0.23;100.00;100395.63;5062769;28;20049;-56
2024/01/18 02:12:37;;;;;;;41.53;37.42;;;;;;;0.09;100.00;100390.88;5068180;28;20440;-57
2024/01/18 02:15:06;;;;;;;34.17;31.88;;;;;;;-0.29;100.00;100380.47;5062318;28;20052;-57
2024/01/18 02:17:33;;;;;;;35.90;32.65;;;;;;;-0.07;100.00;100387.13;5061984;28;20049;-56
2024/01/18 02:19:59;;;;;;;34.55;31.90;;;;;;;-0.04;100.00;100384.22;5068961;28;20048;-57
2024/01/18 02:22:29;;;;;;;33.83;31.17;;;;;;;0.08;100.00;100381.41;5056878;28;20511;-57
2024/01/18 02:25:07;;;;;;;35.13;32.63;;;;;;;0.28;100.00;100375.13;5059824;28;20044;-57
2024/01/18 02:27:35;;;;;;;36.95;34.45;;;;;;;0.43;100.00;100375.44;5057338;28;20059;-57
2024/01/18 02:30:03;;;;;;;33.55;31.25;;;;;;;0.42;100.00;100373.75;5068743;28;20059;-59
2024/01/18 02:32:29;;;;;;;35.25;32.78;;;;;;;0.42;100.00;100363.31;5063273;28;20044;-57
2024/01/18 02:34:56;;;;;;;39.72;37.05;;;;;;;0.56;100.00;100364.59;5065774;28;20046;-57
2024/01/18 02:37:23;;;;;;;38.08;35.30;;;;;;;0.52;100.00;100371.09;5062486;28;20048;-57
2024/01/18 02:39:52;;;;;;;37.38;34.88;;;;;;;0.50;100.00;100360.78;5063095;28;20489;-57
2024/01/18 02:42:19;;;;;;;34.05;31.60;;;;;;;0.58;100.00;100350.41;5064295;28;20461;-57
2024/01/18 02:44:48;;;;;;;35.63;33.42;;;;;;;0.66;100.00;100350.47;5062813;28;20470;-57
2024/01/18 02:47:15;;;;;;;42.05;39.38;;;;;;;0.52;100.00;100337.94;5069916;28;20450;-58
2024/01/18 02:49:42;;;;;;;38.88;36.47;;;;;;;0.45;100.00;100337.72;5058365;28;20063;-57
2024/01/18 02:52:08;;;;;;;32.70;30.60;;;;;;;0.46;100.00;100335.94;5068151;28;20720;-58
2024/01/18 02:54:35;;;;;;;38.03;35.83;;;;;;;0.60;100.00;100327.53;5062150;28;20044;-57
2024/01/18 02:57:02;;;;;;;39.28;36.88;;;;;;;0.23;100.00;100327.69;5064986;28;20440;-59
2024/01/18 02:59:29;;;;;;;38.78;36.28;;;;;;;0.40;100.00;100318.25;5064249;28;20388;-57
2024/01/18 03:01:57;;;;;;;38.40;35.90;;;;;;;0.44;100.00;100320.38;5061381;28;20048;-57
2024/01/18 03:04:24;;;;;;;35.58;33.42;;;;;;;0.55;100.00;100311.50;5062419;28;20510;-57
2024/01/18 03:06:51;;;;;;;38.72;36.42;;;;;;;0.47;100.00;100303.59;5061629;28;20044;-57
2024/01/18 03:09:18;;;;;;;39.25;36.75;;;;;;;0.55;100.00;100301.06;5063484;28;20058;-57
2024/01/18 03:11:45;;;;;;;40.25;37.75;;;;;;;0.62;100.00;100296.84;5075515;28;20056;-57
2024/01/18 03:14:12;;;;;;;39.50;36.92;;;;;;;0.27;100.00;100297.69;5067414;28;20054;-57
2024/01/18 03:16:42;;;;;;;39.22;36.72;;;;;;;0.36;100.00;100304.63;5060226;28;20044;-58
2024/01/18 03:19:11;;;;;;;39.50;36.90;;;;;;;0.58;100.00;100299.94;5072101;28;20571;-58
2024/01/18 03:21:38;;;;;;;48.53;45.22;;;;;;;0.69;100.00;100295.25;5067858;28;20085;-57
2024/01/18 03:24:05;;;;;;;41.17;38.58;;;;;;;0.73;100.00;100290.59;5053137;28;20528;-58
2024/01/18 03:26:32;;;;;;;41.83;39.03;;;;;;;0.65;100.00;100285.28;5067560;28;20489;-58
2024/01/18 03:29:00;;;;;;;43.58;40.08;;;;;;;0.66;100.00;100279.06;5070119;28;20136;-58
2024/01/18 03:31:26;;;;;;;41.17;38.38;;;;;;;0.68;100.00;100282.38;5066949;28;20060;-57
2024/01/18 03:33:53;;;;;;;42.38;39.42;;;;;;;0.65;100.00;100278.25;5072140;28;20047;-58
2024/01/18 03:36:22;;;;;;;44.38;41.45;;;;;;;0.74;100.00;100278.31;5064301;28;20048;-58
2024/01/18 03:38:49;;;;;;;34.47;32.08;;;;;;;0.73;100.00;100274.91;5073971;28;20153;-57
2024/01/18 03:41:16;;;;;;;37.95;35.33;;;;;;;0.70;100.00;100267.34;5071811;28;20056;-57
2024/01/18 03:43:43;;;;;;;38.80;36.10;;;;;;;0.79;100.00;100268.25;5061630;28;20040;-57
2024/01/18 03:46:13;;;;;;;35.80;32.97;;;;;;;0.82;100.00;100260.91;5066099;28;20048;-57
2024/01/18 03:48:40;;;;;;;39.83;37.00;;;;;;;0.74;100.00;100265.25;5060572;28;20052;-57
2024/01/18 03:51:08;;;;;;;39.50;36.80;;;;;;;0.85;100.00;100273.66;5064684;28;20499;-57
2024/01/18 03:53:37;;;;;;;36.38;33.78;;;;;;;0.64;100.00;100279.25;5064913;28;20458;-57
2024/01/18 03:56:04;;;;;;;35.53;32.92;;;;;;;0.58;100.00;100285.06;5076110;28;20044;-59
2024/01/18 03:58:34;;;;;;;38.88;36.28;;;;;;;0.72;100.00;100282.88;5065935;28;20049;-58
2024/01/18 04:01:01;;;;;;;35.85;33.35;;;;;;;0.84;100.00;100282.47;5064543;28;20555;-57
2024/01/18 04:03:28;;;;;;;33.92;31.63;;;;;;;0.79;100.00;100297.00;5064890;28;20083;-57
2024/01/18 04:05:55;;;;;;;34.58;31.77;;;;;;;0.82;100.00;100300.13;5074453;28;20518;-57
2024/01/18 04:08:22;;;;;;;33.97;31.52;;;;;;;0.77;100.00;100297.13;5071147;28;20539;-58
2024/01/18 04:10:50;;;;;;;34.80;32.20;;;;;;;0.88;100.00;100301.31;5066384;28;20056;-58
2024/01/18 04:13:18;;;;;;;31.20;28.90;;;;;;;0.88;100.00;100296.09;5069748;28;20053;-58
2024/01/18 04:15:45;;;;;;;37.40;34.45;;;;;;;0.90;100.00;100299.34;5062122;28;20047;-58
2024/01/18 04:18:12;;;;;;;33.45;30.95;;;;;;;0.88;100.00;100303.94;5071543;28;20122;-58
2024/01/18 04:20:38;;;;;;;34.42;32.13;;;;;;;0.94;100.00;100295.47;5064876;28;20045;-58
2024/01/18 04:23:05;;;;;;;37.55;34.97;;;;;;;1.10;100.00;100305.19;5065502;28;20475;-57
2024/01/18 04:25:32;;;;;;;32.65;29.95;;;;;;;1.04;100.00;100298.78;5060868;28;20060;-58
2024/01/18 04:28:00;;;;;;;33.40;31.00;;;;;;;1.12;100.00;100306.69;5066724;28;20055;-58
2024/01/18 04:30:27;;;;;;;38.67;36.03;;;;;;;0.87;100.00;100310.09;5067352;28;20049;-57
2024/01/18 04:32:54;;;;;;;35.08;32.47;;;;;;;0.97;100.00;100312.63;5068258;28;20040;-57
2024/01/18 04:35:21;;;;;;;37.45;34.85;;;;;;;0.93;100.00;100309.50;5064863;28;20052;-57
2024/01/18 04:37:48;;;;;;;38.30;35.40;;;;;;;1.00;100.00;100318.38;5067485;28;20126;-57
2024/01/18 04:40:14;;;;;;;35.50;32.78;;;;;;;1.13;100.00;100315.34;5071822;28;20470;-58
2024/01/18 04:42:42;;;;;;;35.00;32.13;;;;;;;0.95;100.00;100307.56;5063061;28;20041;-57
2024/01/18 04:45:10;;;;;;;37.55;34.70;;;;;;;0.94;100.00;100305.94;5065807;28;20067;-57
2024/01/18 04:47:37;;;;;;;39.75;36.45;;;;;;;0.88;100.00;100306.53;5064378;28;20056;-58
2024/01/18 04:50:05;;;;;;;41.65;38.45;;;;;;;1.03;100.00;100302.38;5061982;28;20436;-57
2024/01/18 04:52:32;;;;;;;44.05;40.13;;;;;;;1.12;100.00;100305.84;5063463;28;20147;-57
2024/01/18 04:55:03;;;;;;;41.38;38.28;;;;;;;1.02;100.00;100292.88;5057746;28;20052;-57
2024/01/18 04:57:30;;;;;;;42.83;39.53;;;;;;;0.99;100.00;100289.75;5063539;28;20075;-57
2024/01/18 04:59:58;;;;;;;46.30;43.30;;;;;;;2.84;100.00;100285.31;5059268;28;20354;-57
2024/01/18 05:02:26;;;;;;;40.70;37.60;;;;;;;1.12;100.00;100292.78;5060485;28;20479;-57
2024/01/18 05:04:53;;;;;;;38.70;35.65;;;;;;;1.04;100.00;100285.72;5059753;28;20463;-57
2024/01/18 05:07:20;;;;;;;39.60;36.35;;;;;;;1.09;100.00;100277.38;5062079;28;20088;-58
2024/01/18 05:09:47;;;;;;;38.65;35.70;;;;;;;0.94;100.00;100276.31;4363439;28;10000737;-57
2024/01/18 05:12:13;;;;;;;42.88;39.47;;;;;;;0.96;100.00;100280.41;5051802;28;20052;-57
2024/01/18 05:14:40;;;;;;;44.47;40.88;;;;;;;0.90;100.00;100274.00;5056858;28;20053;-57
2024/01/18 05:17:10;;;;;;;45.70;42.20;;;;;;;0.83;100.00;100270.38;5054546;28;20055;-57
2024/01/18 05:19:38;;;;;;;46.10;42.60;;;;;;;0.99;100.00;100271.44;5056459;28;20565;-57
2024/01/18 05:22:05;;;;;;;48.22;44.53;;;;;;;1.03;100.00;100263.16;5052869;28;20408;-57
2024/01/18 05:24:32;;;;;;;49.72;45.92;;;;;;;0.79;100.00;100268.25;5045571;28;20045;-57
2024/01/18 05:26:59;;;;;;;52.13;47.50;;;;;;;0.65;100.00;100269.59;5052442;28;20589;-58
2024/01/18 05:29:26;;;;;;;51.55;47.45;;;;;;;0.96;100.00;100267.34;5053120;28;20053;-57
2024/01/18 05:31:53;;;;;;;54.30;50.03;;;;;;;0.68;100.00;100272.72;5054505;28;20074;-57
2024/01/18 05:34:20;;;;;;;60.25;55.55;;;;;;;0.89;100.00;100258.50;5061069;28;20154;-57
2024/01/18 05:36:48;;;;;;;52.83;48.75;;;;;;;0.96;100.00;100256.88;5056057;28;20056;-57
2024/01/18 05:39:15;;;;;;;50.90;46.85;;;;;;;0.92;100.00;100252.94;5057949;28;20520;-57
2024/01/18 05:41:42;;;;;;;49.58;45.78;;;;;;;1.00;100.00;100250.38;5053362;28;20511;-57
2024/01/18 05:44:09;;;;;;;50.17;46.22;;;;;;;0.94;100.00;100250.16;5055520;28;20060;-57
2024/01/18 05:46:36;;;;;;;47.28;43.13;;;;;;;0.86;100.00;100250.94;5056372;28;20060;-58
2024/01/18 05:49:04;;;;;;;50.42;46.83;;;;;;;0.79;100.00;100250.75;5052651;28;20052;-58
2024/01/18 05:51:31;;;;;;;51.42;48.03;;;;;;;0.89;100.00;100240.19;5062828;28;20052;-57
2024/01/18 05:54:00;;;;;;;50.53;46.92;;;;;;;0.99;100.00;100240.88;5059316;28;20052;-58
2024/01/18 05:56:27;;;;;;;44.80;41.67;;;;;;;1.00;100.00;100241.69;5060412;28;20439;-57
2024/01/18 05:58:53;;;;;;;44.85;41.67;;;;;;;0.99;100.00;100247.91;5055364;28;20052;-57
2024/01/18 06:01:21;;;;;;;44.90;41.92;;;;;;;1.03;100.00;100239.63;5061355;28;20048;-57
2024/01/18 06:03:48;;;;;;;46.38;43.38;;;;;;;0.90;100.00;100237.41;5062153;28;20115;-57
2024/01/18 06:06:15;;;;;;;48.65;45.25;;;;;;;0.95;100.00;100234.34;5054357;28;20127;-57
2024/01/18 06:08:42;;;;;;;51.80;48.08;;;;;;;0.98;100.00;100223.56;5064043;28;20048;-58
2024/01/18 06:11:11;;;;;;;49.10;45.70;;;;;;;1.09;100.00;100225.91;5049279;28;20506;-57
2024/01/18 06:13:39;;;;;;;45.88;42.78;;;;;;;1.02;100.00;100218.84;5057552;28;20376;-58
2024/01/18 06:16:09;;;;;;;49.67;46.08;;;;;;;0.94;100.00;100206.56;5054286;28;20408;-57
2024/01/18 06:18:37;;;;;;;50.80;47.25;;;;;;;1.02;100.00;100197.91;5054291;28;20135;-57
2024/01/18 06:21:05;;;;;;;49.92;46.42;;;;;;;1.07;100.00;100195.66;5058803;28;20080;-57
2024/01/18 06:23:31;;;;;;;53.13;49.53;;;;;;;1.24;100.00;100194.75;5049373;28;20048;-57
2024/01/18 06:25:58;;;;;;;49.65;46.22;;;;;;;1.27;100.00;100190.97;5048918;28;20067;-57
2024/01/18 06:28:27;;;;;;;46.97;43.72;;;;;;;1.19;100.00;100190.97;5060475;28;20435;-57
2024/01/18 06:30:54;;;;;;;49.95;46.35;;;;;;;1.05;100.00;100189.75;5056254;28;20053;-57
2024/01/18 06:33:21;;;;;;;50.20;46.60;;;;;;;0.93;100.00;100185.78;5053697;28;20135;-57
2024/01/18 06:35:47;;;;;;;53.45;49.67;;;;;;;0.93;100.00;100186.59;5048341;28;20049;-58
2024/01/18 06:38:14;;;;;;;51.08;47.33;;;;;;;1.17;100.00;100191.09;5052641;28;20079;-58
2024/01/18 06:40:42;;;;;;;52.42;48.15;;;;;;;1.13;100.00;100184.56;5063348;28;20493;-58
2024/01/18 06:43:09;;;;;;;49.15;45.50;;;;;;;1.29;100.00;100189.03;5057807;28;20048;-57
2024/01/18 06:45:38;;;;;;;54.53;50.53;;;;;;;1.45;100.00;100183.84;5047477;28;20045;-57
2024/01/18 06:48:05;;;;;;;56.38;52.17;;;;;;;1.48;100.00;100183.50;5047268;28;20057;-57
2024/01/18 06:50:32;;;;;;;55.63;51.78;;;;;;;1.53;100.00;100185.66;5043486;28;20595;-57
2024/01/18 06:52:59;;;;;;;58.33;53.95;;;;;;;1.51;100.00;100185.84;5048350;28;20049;-59
2024/01/18 06:55:26;;;;;;;54.50;50.95;;;;;;;1.48;100.00;100180.91;5051938;28;20136;-58
2024/01/18 06:57:53;;;;;;;55.22;50.85;;;;;;;1.49;100.00;100182.56;5056424;28;20466;-58
2024/01/18 07:00:23;;;;;;;50.92;47.22;;;;;;;1.48;100.00;100180.91;5059476;28;20068;-58
2024/01/18 07:02:52;;;;;;;49.25;45.80;;;;;;;1.53;100.00;100183.03;5057245;28;20051;-57
2024/01/18 07:05:19;;;;;;;48.20;44.60;;;;;;;1.55;100.00;100181.91;5063372;28;20060;-57
2024/01/18 07:07:46;;;;;;;47.80;44.40;;;;;;;1.60;100.00;100184.88;5063080;28;20056;-58
2024/01/18 07:10:13;;;;;;;49.03;45.33;;;;;;;1.56;100.00;100182.72;5064703;28;20412;-58
2024/01/18 07:12:40;;;;;;;48.83;45.45;;;;;;;1.58;100.00;100183.41;5063996;28;20053;-57
2024/01/18 07:15:08;;;;;;;49.30;45.80;;;;;;;1.64;100.00;100190.59;5061972;28;20045;-57
2024/01/18 07:17:35;;;;;;;51.40;47.65;;;;;;;1.67;100.00;100195.53;5066449;28;20060;-58
2024/01/18 07:20:04;;;;;;;49.13;45.83;;;;;;;1.71;100.00;100201.25;5056197;28;20080;-58
2024/01/18 07:22:31;;;;;;;49.58;46.17;;;;;;;1.95;100.00;100208.31;5058869;28;20107;-57
2024/01/18 07:24:58;;;;;;;52.15;48.50;;;;;;;2.23;100.00;100211.44;5056686;28;20052;-57
2024/01/18 07:27:25;;;;;;;46.55;43.55;;;;;;;2.38;100.00;100209.00;5059495;28;20478;-57
2024/01/18 07:29:52;;;;;;;48.90;45.80;;;;;;;2.01;100.00;100211.13;5060370;28;20443;-57
2024/01/18 07:32:18;;;;;;;46.03;42.78;;;;;;;1.96;100.00;100215.19;5058025;28;20416;-57
2024/01/18 07:34:46;;;;;;;45.67;42.78;;;;;;;1.97;100.00;100211.63;5059974;28;20048;-58
2024/01/18 07:37:14;;;;;;;40.67;38.17;;;;;;;2.20;100.00;100214.41;5062642;28;20205;-58
2024/01/18 07:39:42;;;;;;;41.50;38.90;;;;;;;1.73;100.00;100218.44;5056088;28;20278;-57
2024/01/18 07:42:09;;;;;;;42.60;39.75;;;;;;;1.65;100.00;100214.97;5057629;28;20091;-57
2024/01/18 07:44:36;;;;;;;40.40;37.83;;;;;;;1.89;100.00;100212.41;5053839;28;20056;-57
2024/01/18 07:47:02;;;;;;;43.60;40.78;;;;;;;1.83;100.00;100220.91;5062040;28;20489;-57
2024/01/18 07:49:30;;;;;;;39.85;37.35;;;;;;;1.92;100.00;100209.47;5049737;28;20436;-57
2024/01/18 07:51:57;;;;;;;39.28;36.78;;;;;;;1.83;100.00;100215.69;5059852;28;20097;-57
2024/01/18 07:54:25;;;;;;;42.90;40.17;;;;;;;1.83;100.00;100210.44;5058789;28;20049;-57
2024/01/18 07:56:51;;;;;;;40.05;37.45;;;;;;;2.10;100.00;100205.88;5061200;28;20053;-58
2024/01/18 07:59:20;;;;;;;39.42;36.83;;;;;;;2.11;100.00;100199.66;5055938;28;20049;-56
2024/01/18 08:01:46;;;;;;;36.10;33.70;;;;;;;1.93;100.00;100200.63;5061417;28;20400;-58
2024/01/18 08:04:13;;;;;;;34.85;32.42;;;;;;;2.04;100.00;100189.00;5060670;28;20049;-57
2024/01/18 08:06:42;;;;;;;34.03;31.67;;;;;;;2.17;100.00;100189.34;5064694;28;20056;-57
2024/01/18 08:09:11;;;;;;;35.40;33.25;;;;;;;2.27;100.00;100178.72;5058088;28;20059;-57
2024/01/18 08:11:40;;;;;;;35.53;33.22;;;;;;;2.49;100.00;100170.16;5053294;28;20059;-57
2024/01/18 08:14:07;;;;;;;31.60;29.50;;;;;;;2.05;100.00;100174.94;5049376;28;20053;-57
2024/01/18 08:16:34;;;;;;;30.88;28.88;;;;;;;2.29;100.00;100164.44;5049608;28;20059;-57
2024/01/18 08:19:01;;;;;;;32.83;30.65;;;;;;;2.38;100.00;100156.56;5049765;28;20487;-58
2024/01/18 08:21:28;;;;;;;34.70;32.40;;;;;;;2.34;100.00;100137.75;5049711;28;20424;-57
2024/01/18 08:23:56;;;;;;;34.78;32.05;;;;;;;2.24;100.00;100135.31;5049685;28;20053;-57
2024/01/18 08:26:22;;;;;;;33.70;31.60;;;;;;;2.36;100.00;100127.06;5044484;28;20512;-58
2024/01/18 11:19:41;;;;;;;27.15;25.45;;;;;;;6.81;100.00;99814.78;5144690;27;20046;-58
2024/01/18 11:22:11;;;;;;;28.35;26.27;;;;;;;6.59;100.00;99814.16;5128384;28;20508;-57
2024/01/18 11:24:38;;;;;;;29.10;26.85;;;;;;;6.54;100.00;99807.88;5127996;28;20510;-57
2024/01/18 11:27:20;;;;;;;30.17;28.17;;;;;;;6.83;100.00;99799.53;5123202;28;20415;-57
2024/01/18 11:29:47;;;;;;;31.52;29.33;;;;;;;6.84;100.00;99787.19;5124569;28;20073;-58
2024/01/18 11:32:15;;;;;;;29.95;28.02;;;;;;;6.87;100.00;99782.31;5127352;28;20108;-57
2024/01/18 11:34:43;;;;;;;32.72;30.42;;;;;;;7.22;100.00;99779.41;5127866;28;20051;-57
2024/01/18 11:37:14;;;;;;;30.50;28.40;;;;;;;7.72;100.00;99776.22;5128233;28;20051;-57
2024/01/18 11:39:58;;;;;;;31.42;29.10;;;;;;;7.39;100.00;99765.75;5127565;28;20054;-58
2024/01/18 11:42:27;;;;;;;30.10;27.05;;;;;;;7.73;100.00;99764.59;5127786;28;20606;-57
2024/01/18 11:44:58;;;;;;;27.40;25.58;;;;;;;8.15;100.00;99771.09;5128104;28;20051;-57
2024/01/18 11:47:25;;;;;;;29.88;27.67;;;;;;;9.10;100.00;99765.66;5128415;27;20419;-57
2024/01/18 11:49:53;;;;;;;29.83;27.75;;;;;;;8.00;100.00;99763.44;5131789;27;20055;-57
2024/01/18 11:52:22;;;;;;;28.17;26.15;;;;;;;7.29;100.00;99766.16;5131441;27;20505;-57
2024/01/18 11:54:52;;;;;;;33.55;31.20;;;;;;;7.72;100.00;99765.63;5131587;27;20055;-57
2024/01/18 11:57:19;;;;;;;28.80;26.75;;;;;;;6.84;100.00;99750.22;5131472;27;20047;-57
2024/01/18 11:59:46;;;;;;;29.23;27.02;;;;;;;7.09;100.00;99756.47;5131356;27;20532;-57
2024/01/18 12:02:14;;;;;;;29.30;26.83;;;;;;;7.26;100.00;99748.09;5131071;27;20063;-57
2024/01/18 12:04:41;;;;;;;28.55;26.45;;;;;;;6.78;100.00;99737.84;5130494;27;20051;-57
2024/01/18 12:07:11;;;;;;;28.65;26.45;;;;;;;6.75;100.00;99754.09;5074116;27;20063;-58
2024/01/18 12:09:39;;;;;;;29.20;27.10;;;;;;;6.49;100.00;99760.97;5079635;28;20082;-57
2024/01/18 12:12:07;;;;;;;29.65;27.55;;;;;;;6.18;100.00;99758.94;5090069;28;20547;-57
2024/01/18 12:14:39;;;;;;;30.75;28.65;;;;;;;6.37;100.00;99760.78;5090082;28;20431;-57
2024/01/18 12:17:07;;;;;;;30.80;28.70;;;;;;;6.12;100.00;99772.91;5089296;28;20066;-57
2024/01/18 12:19:35;;;;;;;34.45;31.90;;;;;;;6.12;100.00;99781.63;5089841;28;20048;-57
2024/01/18 12:22:03;;;;;;;28.27;26.38;;;;;;;5.82;100.00;99773.19;5089903;28;20071;-59
2024/01/18 12:24:32;;;;;;;32.03;29.73;;;;;;;6.05;100.00;99761.53;5089789;28;20143;-57
2024/01/18 12:26:59;;;;;;;26.90;25.00;;;;;;;5.77;100.00;99751.88;5085989;28;20507;-58
2024/01/18 12:29:27;;;;;;;30.85;28.80;;;;;;;6.04;100.00;99746.72;5089588;28;20056;-58
2024/01/18 12:31:54;;;;;;;33.28;31.05;;;;;;;5.86;100.00;99757.81;5089467;28;20056;-58
2024/01/18 12:34:22;;;;;;;30.02;27.92;;;;;;;5.97;100.00;99744.88;5089126;28;20062;-56
2024/01/18 12:36:49;;;;;;;33.25;30.95;;;;;;;6.01;100.00;99741.84;5089834;28;20095;-57
2024/01/18 12:39:17;;;;;;;33.65;31.15;;;;;;;6.07;100.00;99744.50;5090247;28;20052;-58
2024/01/18 12:41:46;;;;;;;32.10;29.90;;;;;;;6.05;100.00;99748.34;5090412;28;20107;-57
2024/01/18 12:44:13;;;;;;;29.92;27.83;;;;;;;6.12;100.00;99751.81;5089630;28;20056;-57
2024/01/18 12:46:41;;;;;;;34.22;31.95;;;;;;;6.17;100.00;99741.47;5090256;28;20064;-57
2024/01/18 12:49:08;;;;;;;36.42;34.03;;;;;;;6.42;100.00;99737.25;5089736;28;20052;-57
2024/01/18 12:51:36;;;;;;;35.47;32.83;;;;;;;6.37;100.00;99741.50;5087713;28;20054;-59
2024/01/18 12:54:04;;;;;;;34.45;31.88;;;;;;;6.17;100.00;99729.13;5088110;28;20236;-57
2024/01/18 12:56:31;;;;;;;35.88;32.83;;;;;;;6.04;100.00;99723.00;5088014;28;20060;-57
2024/01/18 12:58:59;;;;;;;31.63;29.48;;;;;;;6.08;100.00;99727.69;5088562;28;20051;-57
2024/01/18 13:01:28;;;;;;;27.80;26.10;;;;;;;6.05;100.00;99725.44;5088085;28;20058;-57
2024/01/18 13:04:10;;;;;;;34.90;32.70;;;;;;;6.38;100.00;99725.50;5080555;28;20071;-57
2024/01/18 13:06:37;;;;;;;32.75;30.10;;;;;;;6.41;100.00;99713.69;5082016;28;20051;-57
2024/01/18 13:09:05;;;;;;;37.60;34.90;;;;;;;6.36;100.00;99730.16;5079466;28;20056;-57
2024/01/18 13:11:32;;;;;;;42.25;38.30;;;;;;;6.26;100.00;99724.44;5074461;28;20056;-57
2024/01/18 13:14:02;;;;;;;35.75;32.90;;;;;;;6.18;100.00;99727.28;5071447;28;20044;-56
2024/01/18 13:16:29;;;;;;;30.60;28.35;;;;;;;6.08;100.00;99746.16;5076915;28;20562;-57
2024/01/18 13:19:06;;;;;;;31.17;29.17;;;;;;;6.19;100.00;99750.00;5079537;28;20470;-56
2024/01/18 13:21:58;;;;;;;30.45;28.33;;;;;;;6.10;100.00;99751.19;5073199;28;20500;-57
2024/01/18 13:24:25;;;;;;;32.72;30.52;;;;;;;6.05;100.00;99745.69;5074662;28;20052;-57
2024/01/18 13:26:52;;;;;;;32.25;30.23;;;;;;;6.33;100.00;99741.09;5079379;28;20064;-57
2024/01/18 13:29:20;;;;;;;34.20;32.15;;;;;;;6.45;100.00;99738.69;5075412;28;20056;-57
2024/01/18 13:31:47;;;;;;;35.63;33.05;;;;;;;6.44;100.00;99739.66;5076867;28;20478;-58
2024/01/18 13:34:15;;;;;;;35.67;33.20;;;;;;;6.47;100.00;99733.19;5068738;28;20515;-58
2024/01/18 13:36:42;;;;;;;34.35;32.22;;;;;;;6.44;100.00;99737.03;5080040;28;20072;-58
2024/01/18 13:39:10;;;;;;;35.10;32.60;;;;;;;6.33;100.00;99738.47;5070994;28;20141;-57
2024/01/18 13:41:37;;;;;;;32.65;30.52;;;;;;;6.51;100.00;99737.88;5082804;28;20052;-57
2024/01/18 13:44:06;;;;;;;34.35;31.83;;;;;;;6.14;100.00;99747.13;5078532;28;20067;-57
2024/01/18 13:46:37;;;;;;;31.52;29.73;;;;;;;6.21;100.00;99749.81;5069662;28;20067;-58
2024/01/18 13:49:03;;;;;;;28.73;27.02;;;;;;;6.38;100.00;99753.66;5069979;28;20064;-57
2024/01/18 13:51:31;;;;;;;32.10;29.88;;;;;;;6.31;100.00;99742.31;5082796;28;20048;-57
2024/01/18 13:53:58;;;;;;;31.95;29.85;;;;;;;6.24;100.00;99738.88;5072780;28;20388;-57
2024/01/18 13:56:25;;;;;;;29.95;27.80;;;;;;;6.21;100.00;99755.09;5078365;28;20055;-57
2024/01/18 13:58:52;;;;;;;27.88;26.02;;;;;;;6.21;100.00;99744.53;5078478;28;20060;-57
2024/01/18 14:01:18;;;;;;;35.13;32.72;;;;;;;6.11;100.00;99745.75;5079519;28;20436;-57
2024/01/18 14:03:49;;;;;;;32.40;30.23;;;;;;;6.12;100.00;99754.47;5080451;28;20063;-57